METAR Data
IDs: Format: Raw Decoded Include TAF

Data at: 0547 UTC 19 Aug 2019

KPBF 190453Z AUTO VRB03KT 10SM CLR 24/22 A2997 RMK AO2 SLP146 T02390217
KPBF 190353Z AUTO 17003KT 10SM CLR 24/22 A2997 RMK AO2 SLP146 T02390217
KPBF 190253Z AUTO 12005KT 10SM CLR 24/22 A2996 RMK AO2 SLP141 T02440217 51030
KPBF 190153Z AUTO 12007KT 10SM CLR 24/22 A2994 RMK AO2 SLP136 T02440217
KPBF 190053Z AUTO 10007KT 10SM CLR 26/22 A2992 RMK AO2 SLP128 T02560222
KPBF 182353Z AUTO 10007KT 10SM CLR 26/22 A2987 RMK AO2 LTG DSNT SE SLP111 60002 T02610217 10333 20244 58018
KPBF 182311Z AUTO 17006KT 10SM CLR 26/23 A2986 RMK AO2 LTG DSNT E AND SE T02610228
KPBF 182253Z AUTO 15004KT 10SM VCTS FEW036 SCT075 26/22 A2988 RMK AO2 PK WND 33034/2207 WSHFT 2151 LTG DSNT E AND SE RAB23E48 TSB19E34 SLP115 P0002 T02560222
KPBF 182240Z AUTO 10003KT 10SM -RA SCT038 BKN060 OVC110 25/22 A2990 RMK AO2 PK WND 33034/2207 WSHFT 2151 LTG DSNT E RAB23 TSB19E34 P0002 T02500217
KPBF 182225Z AUTO 33015G23KT 6SM TSRA SCT040 BKN050 OVC100 26/21 A2991 RMK AO2 PK WND 33034/2207 WSHFT 2151 RAB23 TSB19 PRESFR P0002 T02560211
KPBF 182211Z AUTO 32020G34KT 10SM VCTS BKN040 BKN048 27/20 A2994 RMK AO2 PK WND 33034/2207 WSHFT 2151 LTG DSNT NW T02670200
KPBF 182153Z AUTO 34017G23KT 10SM VCTS FEW038 SCT095 32/23 A2993 RMK AO2 LTG DSNT NW SLP132 T03220228
KPBF 182053Z AUTO VRB04KT 10SM CLR 33/23 A2992 RMK AO2 LTG DSNT N AND NW SLP129 T03280228 56012
KPBF 181953Z AUTO 24005KT 10SM CLR 32/23 A2993 RMK AO2 SLP131 T03170228
KPBF 181915Z AUTO 31011G19KT 10SM FEW100 FEW110 32/24 A2994 RMK AO2 LTG DSNT S T03220239
KPBF 181900Z AUTO VRB04KT 10SM VCTS FEW110 31/23 A2994 RMK AO2 LTG DSNT S T03110228
KPBF 181853Z AUTO 34008KT 10SM FEW042 SCT110 31/23 A2994 RMK AO2 LTG DSNT S TSE05 SLP134 T03060228
KPBF 181833Z AUTO 33009G19KT 10SM BKN042 BKN055 30/22 A2995 RMK AO2 LTG DSNT NE TSE05 T03000222
KPBF 181818Z AUTO 30007KT 10SM VCTS SCT042 BKN049 32/22 A2995 RMK AO2 LTG DSNT N AND NE TSE05 T03220217
KPBF 181811Z AUTO 28008KT 10SM FEW039 SCT047 BKN060 33/22 A2995 RMK AO2 LTG DSNT N AND NE TSE05 T03280222
KPBF 181753Z AUTO 22007KT 180V260 10SM TS FEW060 SCT075 33/22 A2995 RMK AO2 LTG DSNT N AND NW TSB50 SLP140 T03280222 10328 20228 58001
KPBF 181750Z AUTO 21008KT 10SM TS SCT065 33/22 A2995 RMK AO2 LTG DSNT N AND NW TSB50
KPBF 181653Z AUTO 22007KT 200V270 10SM SCT034 32/23 A2996 RMK AO2 SLP142 T03170228
KPBF 181553Z AUTO VRB06KT 10SM FEW028 31/23 A2997 RMK AO2 SLP145 T03110228
KPBF 181453Z AUTO 22006KT 10SM FEW021 29/23 A2996 RMK AO2 SLP141 T02940233 51014
KPBF 181353Z AUTO VRB04KT 10SM CLR 27/24 A2995 RMK AO2 SLP138 T02720239
KPBF 181253Z AUTO 20006KT 10SM CLR 25/23 A2994 RMK AO2 SLP135 T02500228
KPBF 181153Z AUTO 17005KT 8SM CLR 23/22 A2992 RMK AO2 SLP127 T02280217 10244 20222 50002
KPBF 181053Z AUTO 00000KT 10SM CLR 23/22 A2992 RMK AO2 SLP129 T02330217
KPBF 180953Z AUTO 21005KT 10SM CLR 24/22 A2991 RMK AO2 SLP124 T02390217
KPBF 180853Z AUTO VRB03KT 10SM CLR 23/21 A2991 RMK AO2 SLP125 T02330211 55003
KPBF 180753Z AUTO VRB03KT 10SM CLR 24/21 A2990 RMK AO2 SLP123 T02440211
KPBF 180653Z AUTO 18003KT 10SM CLR 24/21 A2990 RMK AO2 SLP124 T02440211
KPBF 180553Z AUTO 19004KT 10SM CLR 24/21 A2992 RMK AO2 SLP129 T02440211 10317 20239 403560200 51007
KPBF 180453Z AUTO 14004KT 10SM FEW065 24/21 A2992 RMK AO2 SLP129 T02390211
KPBF 180353Z AUTO 14006KT 10SM CLR 25/21 A2991 RMK AO2 SLP127 T02500211
KPBF 180253Z AUTO 13005KT 10SM CLR 25/22 A2990 RMK AO2 SLP122 T02500222 53009
KPBF 180153Z AUTO 10006KT 10SM CLR 26/22 A2989 RMK AO2 SLP118 T02610222
KPBF 180053Z AUTO 13006KT 10SM CLR 28/22 A2987 RMK AO2 SLP113 T02830222
KPBF 172353Z AUTO 12007KT 10SM CLR 32/21 A2987 RMK AO2 SLP112 T03170211 10356 20317 56009
KPBF 172253Z AUTO 13006KT 10SM CLR 34/21 A2988 RMK AO2 SLP115 T03390211
KPBF 172153Z AUTO 10007KT 10SM FEW055 SCT070 34/22 A2989 RMK AO2 SLP117 T03390217
KPBF 172053Z AUTO VRB05KT 10SM SCT060 BKN085 33/21 A2990 RMK AO2 SLP121 T03330206 56020
KPBF 171953Z AUTO 09005KT 10SM SCT055 35/21 A2991 RMK AO2 SLP126 T03500206
KPBF 171853Z AUTO VRB05KT 10SM CLR 34/21 A2993 RMK AO2 SLP132 T03390206
KPBF 171753Z AUTO VRB04KT 10SM FEW043 33/22 A2996 RMK AO2 SLP141 T03280217 10333 20211 58003